Time;durP1;ratioP1;P1;durP2;ratioP2;P2;SDS_P1;SDS_P2;PMS_P1;PMS_P2;Temp;Humidity;BMP_temperature;BMP_pressure;BME280_temperature;BME280_humidity;BME280_pressure;Samples;Min_cycle;Max_cycle;Signal;HPM_P1;HPM_P2
2021/09/10 00:00:53;;;;;;;3.60;2.77;;;;;;;;;;5013405;28;20496;-55
2021/09/10 00:03:21;;;;;;;3.73;3.20;;;;;;;;;;5013461;28;20461;-56
2021/09/10 00:05:48;;;;;;;2.90;2.70;;;;;;;;;;5013514;28;20447;-55
2021/09/10 00:08:16;;;;;;;3.30;2.83;;;;;;;;;;5013569;28;20446;-55
2021/09/10 00:10:43;;;;;;;3.57;3.20;;;;;;;;;;5013178;28;20500;-57
2021/09/10 00:13:10;;;;;;;4.37;2.90;;;;;;;;;;5013126;28;20552;-55
2021/09/10 00:15:37;;;;;;;3.97;3.50;;;;;;;;;;5013554;28;20446;-55
2021/09/10 00:18:05;;;;;;;3.77;3.37;;;;;;;;;;5013482;28;20504;-55
2021/09/10 00:20:33;;;;;;;5.07;3.70;;;;;;;;;;5013465;28;20492;-56
2021/09/10 00:23:00;;;;;;;4.03;3.50;;;;;;;;;;5013851;28;20512;-56
2021/09/10 00:25:28;;;;;;;5.20;4.10;;;;;;;;;;5017509;28;20814;-56
2021/09/10 00:27:55;;;;;;;4.60;4.20;;;;;;;;;;5017116;28;20450;-56
2021/09/10 00:30:22;;;;;;;5.97;4.73;;;;;;;;;;5017345;28;20522;-55
2021/09/10 00:32:49;;;;;;;5.00;4.17;;;;;;;;;;5016986;28;20555;-56
2021/09/10 00:35:17;;;;;;;3.97;3.67;;;;;;;;;;5017188;28;20450;-56
2021/09/10 00:37:45;;;;;;;4.20;3.80;;;;;;;;;;5017385;28;20492;-56
2021/09/10 00:40:13;;;;;;;4.33;3.93;;;;;;;;;;5017250;28;20446;-56
2021/09/10 00:42:40;;;;;;;4.97;4.13;;;;;;;;;;5016808;28;20937;-57
2021/09/10 00:45:08;;;;;;;3.90;3.30;;;;;;;;;;5017219;28;20442;-55
2021/09/10 00:47:35;;;;;;;4.17;3.83;;;;;;;;;;5017087;28;20523;-54
2021/09/10 00:50:03;;;;;;;4.10;3.53;;;;;;;;;;5016814;28;20926;-55
2021/09/10 00:52:30;;;;;;;3.20;2.90;;;;;;;;;;5016770;28;21016;-54
2021/09/10 00:54:59;;;;;;;5.20;3.57;;;;;;;;;;5016652;28;20540;-55
2021/09/10 00:57:26;;;;;;;3.77;3.47;;;;;;;;;;5016876;28;20504;-55
2021/09/10 00:59:54;;;;;;;4.40;4.00;;;;;;;;;;5016913;28;20449;-54
2021/09/10 01:02:21;;;;;;;4.80;4.40;;;;;;;;;;5016797;28;20469;-55
2021/09/10 01:04:48;;;;;;;4.60;4.17;;;;;;;;;;5016449;28;20500;-55
2021/09/10 01:07:15;;;;;;;3.67;3.30;;;;;;;;;;5016735;28;20442;-55
2021/09/10 01:09:43;;;;;;;4.00;3.60;;;;;;;;;;5016613;28;20446;-55
2021/09/10 01:12:11;;;;;;;4.00;3.60;;;;;;;;;;5016234;28;20973;-55
2021/09/10 01:14:39;;;;;;;4.37;3.97;;;;;;;;;;5016509;28;20906;-55
2021/09/10 01:17:06;;;;;;;4.17;3.77;;;;;;;;;;5016553;28;20515;-55
2021/09/10 01:19:36;;;;;;;4.47;3.97;;;;;;;;;;5016568;28;20871;-57
2021/09/10 01:22:04;;;;;;;7.10;4.37;;;;;;;;;;5016355;28;20473;-55
2021/09/10 01:24:34;;;;;;;4.73;4.13;;;;;;;;;;5016393;28;20504;-57
2021/09/10 01:27:01;;;;;;;5.13;4.63;;;;;;;;;;5016305;28;20561;-57
2021/09/10 01:29:29;;;;;;;5.20;4.27;;;;;;;;;;5016261;28;20524;-57
2021/09/10 01:31:56;;;;;;;4.87;4.40;;;;;;;;;;5015766;28;20474;-58
2021/09/10 01:34:24;;;;;;;6.33;5.07;;;;;;;;;;5016074;28;20485;-57
2021/09/10 01:36:51;;;;;;;5.37;4.03;;;;;;;;;;5015358;28;20517;-57
2021/09/10 01:39:18;;;;;;;5.17;4.47;;;;;;;;;;5016618;28;20501;-57
2021/09/10 01:41:47;;;;;;;6.00;5.50;;;;;;;;;;5015937;28;20469;-57
2021/09/10 01:44:14;;;;;;;7.77;5.00;;;;;;;;;;5015640;28;20454;-57
2021/09/10 01:46:41;;;;;;;5.43;4.93;;;;;;;;;;5016035;28;20512;-57
2021/09/10 01:49:08;;;;;;;6.13;5.50;;;;;;;;;;5015627;28;20962;-57
2021/09/10 01:51:36;;;;;;;6.30;5.20;;;;;;;;;;5015851;28;20520;-57
2021/09/10 01:54:03;;;;;;;6.97;5.20;;;;;;;;;;5015608;28;20532;-57
2021/09/10 01:56:31;;;;;;;5.43;4.93;;;;;;;;;;5016709;28;20520;-58
2021/09/10 01:58:59;;;;;;;6.60;5.20;;;;;;;;;;5016150;28;20450;-58
2021/09/10 02:01:30;;;;;;;6.17;5.57;;;;;;;;;;5016032;28;20470;-59
2021/09/10 02:03:57;;;;;;;7.90;5.60;;;;;;;;;;5015850;28;20437;-58
2021/09/10 02:06:24;;;;;;;6.23;5.10;;;;;;;;;;5015647;28;20485;-59
2021/09/10 02:08:51;;;;;;;5.37;4.87;;;;;;;;;;5015291;28;20866;-57
2021/09/10 02:11:19;;;;;;;6.50;5.90;;;;;;;;;;5015116;28;20461;-58
2021/09/10 02:13:46;;;;;;;7.07;6.37;;;;;;;;;;5015411;28;20488;-57
2021/09/10 02:16:15;;;;;;;7.20;6.10;;;;;;;;;;5015115;28;20446;-59
2021/09/10 02:18:42;;;;;;;6.80;5.80;;;;;;;;;;5015369;28;20508;-58
2021/09/10 02:21:09;;;;;;;7.37;6.73;;;;;;;;;;5015000;28;20950;-58
2021/09/10 02:23:37;;;;;;;6.23;5.73;;;;;;;;;;5015316;28;20516;-59
2021/09/10 02:26:04;;;;;;;7.03;6.10;;;;;;;;;;5015181;28;20445;-58
2021/09/10 02:28:32;;;;;;;6.60;6.00;;;;;;;;;;5015199;28;20450;-59
2021/09/10 02:30:59;;;;;;;8.83;6.93;;;;;;;;;;5014788;28;20512;-59
2021/09/10 02:33:28;;;;;;;7.37;6.57;;;;;;;;;;5015037;28;20486;-59
2021/09/10 02:35:55;;;;;;;7.97;7.27;;;;;;;;;;5015031;28;20441;-59
2021/09/10 02:38:23;;;;;;;7.83;6.87;;;;;;;;;;5014655;28;20446;-59
2021/09/10 02:40:50;;;;;;;8.67;7.87;;;;;;;;;;5014957;28;20450;-59
2021/09/10 02:43:18;;;;;;;10.00;8.13;;;;;;;;;;5014803;28;20470;-59
2021/09/10 02:45:45;;;;;;;7.63;6.83;;;;;;;;;;5014568;28;20508;-58
2021/09/10 02:48:12;;;;;;;9.27;8.07;;;;;;;;;;5013520;28;20454;-59
2021/09/10 02:50:41;;;;;;;7.53;6.83;;;;;;;;;;5015308;28;20878;-58
2021/09/10 02:53:08;;;;;;;8.13;7.33;;;;;;;;;;5014986;28;20524;-59
2021/09/10 02:55:35;;;;;;;9.23;8.23;;;;;;;;;;5014463;28;20973;-59
2021/09/10 02:58:03;;;;;;;7.80;6.63;;;;;;;;;;5014893;28;20496;-59
2021/09/10 03:00:30;;;;;;;8.70;7.57;;;;;;;;;;5014716;28;20450;-58
2021/09/10 03:02:57;;;;;;;8.90;7.93;;;;;;;;;;5014608;28;20465;-58
2021/09/10 03:05:24;;;;;;;8.73;7.50;;;;;;;;;;5014318;28;20877;-58
2021/09/10 03:07:53;;;;;;;8.13;7.03;;;;;;;;;;5014313;28;20450;-59
2021/09/10 03:10:20;;;;;;;8.37;7.57;;;;;;;;;;5014189;28;20445;-58
2021/09/10 03:12:47;;;;;;;13.20;7.80;;;;;;;;;;5014533;28;20465;-59
2021/09/10 03:15:15;;;;;;;8.40;7.60;;;;;;;;;;5014372;28;20478;-59
2021/09/10 03:17:42;;;;;;;10.53;7.47;;;;;;;;;;5014123;28;20946;-59
2021/09/10 03:20:10;;;;;;;8.70;7.97;;;;;;;;;;5013891;28;20445;-59
2021/09/10 03:22:37;;;;;;;10.63;8.07;;;;;;;;;;5014145;28;20458;-57
2021/09/10 03:25:07;;;;;;;9.07;8.23;;;;;;;;;;5013758;28;20871;-59
2021/09/10 03:27:35;;;;;;;8.60;7.80;;;;;;;;;;5014094;28;20500;-59
2021/09/10 03:30:03;;;;;;;12.00;8.20;;;;;;;;;;5013680;28;20966;-59
2021/09/10 03:32:30;;;;;;;9.40;8.40;;;;;;;;;;5036055;22;20547;-62
2021/09/10 03:34:58;;;;;;;10.60;8.37;;;;;;;;;;5033518;28;20480;-62
2021/09/10 03:37:25;;;;;;;10.43;8.90;;;;;;;;;;5033818;28;20495;-61
2021/09/10 03:40:05;;;;;;;9.60;8.70;;;;;;;;;;5034236;28;20453;-61
2021/09/10 03:42:34;;;;;;;9.90;8.23;;;;;;;;;;5033692;28;20805;-62
2021/09/10 03:45:02;;;;;;;10.80;9.50;;;;;;;;;;5033714;28;20485;-60
2021/09/10 03:47:29;;;;;;;17.63;10.87;;;;;;;;;;5033209;28;20449;-60
2021/09/10 03:49:56;;;;;;;13.33;10.30;;;;;;;;;;5034241;28;20445;-61
2021/09/10 03:52:24;;;;;;;13.50;9.30;;;;;;;;;;5033419;28;20473;-61
2021/09/10 03:54:51;;;;;;;12.30;11.07;;;;;;;;;;5033421;28;20523;-62
2021/09/10 03:57:18;;;;;;;12.80;9.63;;;;;;;;;;5034180;28;20449;-60
2021/09/10 03:59:47;;;;;;;15.53;10.93;;;;;;;;;;5033075;28;20862;-60
2021/09/10 04:02:14;;;;;;;13.27;10.40;;;;;;;;;;5032974;28;21038;-60
2021/09/10 04:04:41;;;;;;;12.83;11.50;;;;;;;;;;5033358;28;20437;-60
2021/09/10 04:08:33;;;;;;;14.20;12.60;;;;;;;;;;5090952;28;20567;-62
2021/09/10 04:11:00;;;;;;;13.90;12.33;;;;;;;;;;5090829;28;20443;-62
2021/09/10 04:13:28;;;;;;;15.13;13.40;;;;;;;;;;5090908;28;20870;-60
2021/09/10 04:15:55;;;;;;;13.93;12.47;;;;;;;;;;5091508;28;20438;-60
2021/09/10 04:18:22;;;;;;;15.50;13.67;;;;;;;;;;5090890;28;20488;-61
2021/09/10 04:20:49;;;;;;;16.70;12.73;;;;;;;;;;5090860;28;20504;-62
2021/09/10 04:23:17;;;;;;;14.20;12.80;;;;;;;;;;5090646;28;20470;-62
2021/09/10 04:25:45;;;;;;;15.27;12.13;;;;;;;;;;5090671;28;20508;-62
2021/09/10 04:28:13;;;;;;;15.67;12.90;;;;;;;;;;5090084;28;20884;-62
2021/09/10 04:30:40;;;;;;;14.23;12.83;;;;;;;;;;5090401;28;20500;-62
2021/09/10 04:33:07;;;;;;;17.13;12.23;;;;;;;;;;5089850;28;20466;-61
2021/09/10 04:35:34;;;;;;;14.40;13.00;;;;;;;;;;5090216;28;20498;-61
2021/09/10 04:38:02;;;;;;;20.13;13.53;;;;;;;;;;5090334;28;20996;-61
2021/09/10 04:40:29;;;;;;;14.13;12.73;;;;;;;;;;5090367;28;20442;-61
2021/09/10 04:42:57;;;;;;;14.67;13.17;;;;;;;;;;5089873;28;20474;-62
2021/09/10 04:45:25;;;;;;;17.00;13.50;;;;;;;;;;5089851;28;20450;-62
2021/09/10 04:47:52;;;;;;;14.33;12.23;;;;;;;;;;5089997;28;20478;-62
2021/09/10 04:50:19;;;;;;;17.73;12.50;;;;;;;;;;5090098;28;20469;-62
2021/09/10 04:52:46;;;;;;;17.80;13.63;;;;;;;;;;5089692;28;20516;-62
2021/09/10 04:55:14;;;;;;;16.10;13.03;;;;;;;;;;5090090;28;20491;-62
2021/09/10 04:57:41;;;;;;;13.73;12.30;;;;;;;;;;5089981;28;20499;-62
2021/09/10 05:00:10;;;;;;;15.70;13.80;;;;;;;;;;5089549;28;20458;-62
2021/09/10 05:02:37;;;;;;;15.47;13.67;;;;;;;;;;5089989;28;20467;-61
2021/09/10 05:05:05;;;;;;;16.40;13.83;;;;;;;;;;5089592;28;21037;-62
2021/09/10 05:07:32;;;;;;;15.30;12.70;;;;;;;;;;5089428;28;20508;-62
2021/09/10 05:09:59;;;;;;;14.83;13.03;;;;;;;;;;5089622;28;20511;-61
2021/09/10 05:12:27;;;;;;;14.23;12.83;;;;;;;;;;5089646;28;20517;-61
2021/09/10 05:14:54;;;;;;;15.20;13.70;;;;;;;;;;5089684;28;20442;-62
2021/09/10 05:17:23;;;;;;;16.97;12.00;;;;;;;;;;5089179;28;20951;-62
2021/09/10 05:19:50;;;;;;;14.37;13.07;;;;;;;;;;5075904;28;20866;-62
2021/09/10 05:22:17;;;;;;;13.53;12.27;;;;;;;;;;5075620;28;20525;-61
2021/09/10 05:24:45;;;;;;;14.70;12.30;;;;;;;;;;5075906;28;20447;-62
2021/09/10 05:27:12;;;;;;;13.30;12.00;;;;;;;;;;5075753;28;20485;-62
2021/09/10 05:29:39;;;;;;;14.07;12.67;;;;;;;;;;5075771;28;20516;-61
2021/09/10 05:32:07;;;;;;;14.10;12.43;;;;;;;;;;5075439;28;20475;-62
2021/09/10 05:34:35;;;;;;;13.67;12.33;;;;;;;;;;5075739;28;20439;-62
2021/09/10 05:37:02;;;;;;;13.33;12.07;;;;;;;;;;5075772;28;20435;-62
2021/09/10 05:39:30;;;;;;;13.27;11.80;;;;;;;;;;5075298;28;20538;-62
2021/09/10 05:41:57;;;;;;;13.27;11.97;;;;;;;;;;5075435;28;20493;-62
2021/09/10 05:44:24;;;;;;;15.83;12.50;;;;;;;;;;5075629;28;20454;-60
2021/09/10 05:46:51;;;;;;;14.70;12.50;;;;;;;;;;5075391;28;20824;-62
2021/09/10 05:49:19;;;;;;;12.97;11.60;;;;;;;;;;5075630;28;20443;-62
2021/09/10 05:51:47;;;;;;;12.60;11.30;;;;;;;;;;5076028;28;20439;-61
2021/09/10 05:54:14;;;;;;;17.10;11.87;;;;;;;;;;5077077;28;20504;-61
2021/09/10 05:56:42;;;;;;;15.03;13.53;;;;;;;;;;5075701;28;20439;-62
2021/09/10 05:59:09;;;;;;;16.43;12.33;;;;;;;;;;5075184;28;20861;-61
2021/09/10 06:01:36;;;;;;;12.10;10.90;;;;;;;;;;5075420;28;20447;-61
2021/09/10 06:04:03;;;;;;;13.00;11.80;;;;;;;;;;5075538;28;20447;-61
2021/09/10 06:06:31;;;;;;;12.93;11.30;;;;;;;;;;5075401;28;20943;-62
2021/09/10 06:08:59;;;;;;;13.80;12.40;;;;;;;;;;5075712;28;20463;-61
2021/09/10 06:11:26;;;;;;;13.07;11.63;;;;;;;;;;5075032;28;20439;-61
2021/09/10 06:13:56;;;;;;;12.93;11.70;;;;;;;;;;5074428;28;20864;-61
2021/09/10 06:16:23;;;;;;;11.97;10.80;;;;;;;;;;5074912;28;20855;-61
2021/09/10 06:18:50;;;;;;;11.33;10.17;;;;;;;;;;5074498;28;20443;-61
2021/09/10 06:21:17;;;;;;;11.87;10.77;;;;;;;;;;5074524;28;20443;-61
2021/09/10 06:23:45;;;;;;;12.07;10.87;;;;;;;;;;5074177;28;20471;-61
2021/09/10 06:26:15;;;;;;;12.30;10.53;;;;;;;;;;5074585;28;20470;-64
2021/09/10 06:28:43;;;;;;;12.03;10.87;;;;;;;;;;5075152;28;20477;-61
2021/09/10 06:31:10;;;;;;;13.23;9.80;;;;;;;;;;5073662;28;20530;-61
2021/09/10 06:33:37;;;;;;;13.90;10.53;;;;;;;;;;5074983;28;20463;-62
2021/09/10 06:36:05;;;;;;;10.90;9.90;;;;;;;;;;5074727;28;20451;-61
2021/09/10 06:38:32;;;;;;;12.57;11.33;;;;;;;;;;5074865;28;20444;-61
2021/09/10 06:40:59;;;;;;;12.20;10.17;;;;;;;;;;5074523;28;20568;-61
2021/09/10 06:43:28;;;;;;;11.83;10.07;;;;;;;;;;5073957;28;20463;-61
2021/09/10 06:45:55;;;;;;;12.13;11.03;;;;;;;;;;5074356;28;20447;-62
2021/09/10 06:48:23;;;;;;;13.90;11.37;;;;;;;;;;5074357;28;20570;-62
2021/09/10 06:50:50;;;;;;;13.17;11.70;;;;;;;;;;5075693;28;20439;-63
2021/09/10 06:53:17;;;;;;;11.63;10.43;;;;;;;;;;5075619;28;20520;-60
2021/09/10 06:55:44;;;;;;;11.80;10.57;;;;;;;;;;5076141;28;20447;-63
2021/09/10 06:58:12;;;;;;;11.00;9.90;;;;;;;;;;5074911;28;20436;-62
2021/09/10 07:00:40;;;;;;;13.70;10.47;;;;;;;;;;5074104;28;20521;-64
2021/09/10 07:03:07;;;;;;;11.47;10.30;;;;;;;;;;5073940;28;20524;-63
2021/09/10 07:05:35;;;;;;;12.27;11.00;;;;;;;;;;5073790;28;20505;-63
2021/09/10 07:08:02;;;;;;;11.37;10.27;;;;;;;;;;5073537;28;20538;-63
2021/09/10 07:10:29;;;;;;;11.07;9.97;;;;;;;;;;5073454;28;20448;-63
2021/09/10 07:12:56;;;;;;;11.33;10.23;;;;;;;;;;5073336;28;20486;-61
2021/09/10 07:15:24;;;;;;;10.90;9.80;;;;;;;;;;5074664;28;20439;-61
2021/09/10 07:17:52;;;;;;;11.10;9.90;;;;;;;;;;5073802;28;20437;-62
2021/09/10 07:20:20;;;;;;;11.40;10.20;;;;;;;;;;5073704;28;20497;-62
2021/09/10 07:22:47;;;;;;;10.20;9.00;;;;;;;;;;5073252;28;20525;-61
2021/09/10 07:25:14;;;;;;;10.90;9.80;;;;;;;;;;5073557;28;20789;-61
2021/09/10 07:27:41;;;;;;;9.50;8.50;;;;;;;;;;5074229;28;20480;-61
2021/09/10 07:30:09;;;;;;;11.97;9.70;;;;;;;;;;5073132;28;20502;-61
2021/09/10 07:32:36;;;;;;;18.57;9.77;;;;;;;;;;5073129;28;21058;-61
2021/09/10 07:35:05;;;;;;;12.40;8.97;;;;;;;;;;5073558;28;20449;-62
2021/09/10 07:37:33;;;;;;;11.23;10.13;;;;;;;;;;5073331;28;20437;-62
2021/09/10 07:40:00;;;;;;;10.60;9.60;;;;;;;;;;5073281;28;20528;-61
2021/09/10 07:42:28;;;;;;;12.20;11.03;;;;;;;;;;5072745;28;20489;-61
2021/09/10 07:44:55;;;;;;;11.77;10.23;;;;;;;;;;5072906;28;21012;-62
2021/09/10 07:47:22;;;;;;;10.23;9.23;;;;;;;;;;5072988;28;20792;-62
2021/09/10 07:49:50;;;;;;;10.63;9.53;;;;;;;;;;5072809;28;20458;-62
2021/09/10 07:52:18;;;;;;;10.77;9.57;;;;;;;;;;5072892;28;21035;-61
2021/09/10 07:54:45;;;;;;;10.30;9.40;;;;;;;;;;5072951;28;20445;-61
2021/09/10 07:57:13;;;;;;;13.07;10.10;;;;;;;;;;5073267;28;20453;-61
2021/09/10 07:59:40;;;;;;;11.33;10.20;;;;;;;;;;5072555;28;20938;-61
2021/09/10 08:02:07;;;;;;;11.97;10.23;;;;;;;;;;5072736;28;20862;-62
2021/09/10 08:04:34;;;;;;;12.73;9.80;;;;;;;;;;5072543;28;20464;-62
2021/09/10 08:07:02;;;;;;;12.30;9.80;;;;;;;;;;5072869;28;20875;-62
2021/09/10 08:09:30;;;;;;;10.23;9.23;;;;;;;;;;5072900;28;20528;-62
2021/09/10 08:11:57;;;;;;;11.97;10.60;;;;;;;;;;5072528;28;20479;-62
2021/09/10 08:14:25;;;;;;;10.40;9.40;;;;;;;;;;5072836;28;20501;-62
2021/09/10 08:16:52;;;;;;;11.30;10.30;;;;;;;;;;5072634;28;20504;-62
2021/09/10 08:19:19;;;;;;;11.17;10.17;;;;;;;;;;5072146;28;20447;-60
2021/09/10 08:21:46;;;;;;;11.50;10.27;;;;;;;;;;5072546;28;20448;-61
2021/09/10 08:24:14;;;;;;;10.30;9.30;;;;;;;;;;5072414;28;20513;-62
2021/09/10 08:26:42;;;;;;;11.20;10.10;;;;;;;;;;5072346;28;20462;-61
2021/09/10 08:29:09;;;;;;;11.40;10.40;;;;;;;;;;5072309;28;20472;-61
2021/09/10 08:31:37;;;;;;;10.90;9.90;;;;;;;;;;5072428;28;21014;-61
2021/09/10 08:34:05;;;;;;;10.53;9.43;;;;;;;;;;5072410;28;20441;-60
2021/09/10 08:36:32;;;;;;;12.50;10.10;;;;;;;;;;5072575;28;20458;-62
2021/09/10 08:39:00;;;;;;;9.60;8.70;;;;;;;;;;5072362;28;20456;-62
2021/09/10 08:41:28;;;;;;;10.47;9.47;;;;;;;;;;5073022;28;20449;-63
2021/09/10 08:43:59;;;;;;;11.30;9.00;;;;;;;;;;5072626;28;20446;-62
2021/09/10 08:46:26;;;;;;;10.27;9.30;;;;;;;;;;5072503;28;20497;-62
2021/09/10 08:48:53;;;;;;;14.57;8.60;;;;;;;;;;5072337;28;20509;-61
2021/09/10 08:51:21;;;;;;;10.17;9.27;;;;;;;;;;5072456;28;20444;-61
2021/09/10 08:53:48;;;;;;;10.77;9.07;;;;;;;;;;5073769;28;20467;-62
2021/09/10 08:56:15;;;;;;;10.37;9.27;;;;;;;;;;5076318;28;20870;-61
2021/09/10 08:58:43;;;;;;;10.47;9.50;;;;;;;;;;5076041;28;20444;-62
2021/09/10 09:01:11;;;;;;;10.50;9.47;;;;;;;;;;5075399;28;20509;-61
2021/09/10 09:03:39;;;;;;;10.23;9.17;;;;;;;;;;5075642;28;20506;-62
2021/09/10 09:06:06;;;;;;;12.63;9.47;;;;;;;;;;5075909;28;20527;-63
2021/09/10 09:08:33;;;;;;;10.27;9.17;;;;;;;;;;5075505;28;20493;-62
2021/09/10 09:11:02;;;;;;;16.80;9.63;;;;;;;;;;5075808;28;20497;-61
2021/09/10 09:13:30;;;;;;;12.47;9.80;;;;;;;;;;5075327;28;20461;-61
2021/09/10 09:16:15;;;;;;;9.70;8.70;;;;;;;;;;5075659;28;20528;-62
2021/09/10 09:18:43;;;;;;;11.07;10.07;;;;;;;;;;5076692;28;20438;-61
2021/09/10 09:21:11;;;;;;;10.60;9.60;;;;;;;;;;5075864;28;20460;-61
2021/09/10 09:23:38;;;;;;;11.47;9.03;;;;;;;;;;5075594;28;20467;-61
2021/09/10 09:26:14;;;;;;;11.27;10.10;;;;;;;;;;5075385;28;20442;-61
2021/09/10 09:28:41;;;;;;;11.60;9.20;;;;;;;;;;5076092;28;20850;-62
2021/09/10 09:31:10;;;;;;;10.00;8.93;;;;;;;;;;5075032;28;20911;-62
2021/09/10 09:33:39;;;;;;;11.10;10.03;;;;;;;;;;5076807;28;20475;-62
2021/09/10 09:36:09;;;;;;;12.40;9.80;;;;;;;;;;5075152;28;20933;-62
2021/09/10 09:38:37;;;;;;;13.07;10.60;;;;;;;;;;5075760;28;20473;-61
2021/09/10 09:41:07;;;;;;;11.47;10.27;;;;;;;;;;5075285;28;20451;-62
2021/09/10 09:43:36;;;;;;;10.10;9.13;;;;;;;;;;5075228;28;20525;-62
2021/09/10 09:46:03;;;;;;;9.97;8.97;;;;;;;;;;5076015;28;20495;-62
2021/09/10 09:48:30;;;;;;;10.33;9.20;;;;;;;;;;5075274;28;20554;-62
2021/09/10 09:51:00;;;;;;;11.50;10.40;;;;;;;;;;5075097;28;20448;-62
2021/09/10 09:53:27;;;;;;;13.00;10.80;;;;;;;;;;5075296;28;20468;-63
2021/09/10 09:55:54;;;;;;;13.53;11.30;;;;;;;;;;5074889;28;20441;-62
2021/09/10 09:58:21;;;;;;;16.43;11.63;;;;;;;;;;5074922;28;20492;-62
2021/09/10 10:00:49;;;;;;;12.73;11.43;;;;;;;;;;5074886;28;20512;-62
2021/09/10 10:03:16;;;;;;;13.10;11.80;;;;;;;;;;5074475;28;20473;-61
2021/09/10 10:05:53;;;;;;;12.80;11.60;;;;;;;;;;5074121;28;21006;-59
2021/09/10 10:08:25;;;;;;;12.83;11.70;;;;;;;;;;5074314;28;20524;-63
2021/09/10 10:10:53;;;;;;;13.80;12.53;;;;;;;;;;5074685;28;20440;-62
2021/09/10 10:13:22;;;;;;;13.10;11.87;;;;;;;;;;5074180;28;20948;-63
2021/09/10 10:15:52;;;;;;;13.03;11.83;;;;;;;;;;5074282;28;20518;-63
2021/09/10 10:18:34;;;;;;;11.97;10.87;;;;;;;;;;5074408;28;20475;-61
2021/09/10 10:21:01;;;;;;;12.77;11.17;;;;;;;;;;5074016;28;20851;-62
2021/09/10 10:23:49;;;;;;;12.07;10.97;;;;;;;;;;5074336;28;20454;-63
2021/09/10 10:26:19;;;;;;;12.70;11.50;;;;;;;;;;5074160;28;20460;-62
2021/09/10 10:28:46;;;;;;;14.03;12.63;;;;;;;;;;5074179;28;20485;-64
2021/09/10 10:31:14;;;;;;;13.90;12.50;;;;;;;;;;5073943;28;20514;-61
2021/09/10 10:33:49;;;;;;;13.40;12.20;;;;;;;;;;5074031;28;20977;-61
2021/09/10 10:36:30;;;;;;;13.70;12.17;;;;;;;;;;5074112;28;20472;-61
2021/09/10 10:39:18;;;;;;;12.40;11.10;;;;;;;;;;5073785;28;20928;-63
2021/09/10 10:41:47;;;;;;;11.63;10.53;;;;;;;;;;5074069;28;20501;-63
2021/09/10 10:44:33;;;;;;;11.60;10.50;;;;;;;;;;5073963;28;20510;-63
2021/09/10 10:47:03;;;;;;;13.20;11.90;;;;;;;;;;5074132;28;20444;-62
2021/09/10 10:49:34;;;;;;;11.23;10.17;;;;;;;;;;5073593;28;20553;-61
2021/09/10 10:52:01;;;;;;;11.27;10.17;;;;;;;;;;5073879;28;20460;-63
2021/09/10 10:54:29;;;;;;;12.67;11.47;;;;;;;;;;5073669;28;20938;-62
2021/09/10 10:56:59;;;;;;;13.07;11.67;;;;;;;;;;5074443;28;20477;-62
2021/09/10 10:59:33;;;;;;;13.50;12.10;;;;;;;;;;5073356;28;20962;-63
2021/09/10 11:02:35;;;;;;;13.83;12.57;;;;;;;;;;5073150;28;20469;-62
2021/09/10 11:05:03;;;;;;;14.50;13.10;;;;;;;;;;5011752;28;20433;-61
2021/09/10 11:07:32;;;;;;;14.07;12.77;;;;;;;;;;5011678;28;20468;-61
2021/09/10 11:10:00;;;;;;;15.20;12.17;;;;;;;;;;5041931;28;20489;-62
2021/09/10 11:12:28;;;;;;;14.03;12.63;;;;;;;;;;5074816;28;20877;-62
2021/09/10 11:14:56;;;;;;;15.20;13.70;;;;;;;;;;5074240;28;20943;-63
2021/09/10 11:17:27;;;;;;;13.50;11.93;;;;;;;;;;5073663;28;20600;-61
2021/09/10 11:19:55;;;;;;;14.10;11.77;;;;;;;;;;5074095;28;20424;-62
2021/09/10 11:22:23;;;;;;;13.93;12.63;;;;;;;;;;5073149;28;20461;-62
2021/09/10 11:24:50;;;;;;;14.70;12.83;;;;;;;;;;5073039;28;20459;-61
2021/09/10 11:27:24;;;;;;;14.37;12.87;;;;;;;;;;5072963;28;20489;-60
2021/09/10 11:29:53;;;;;;;14.10;12.90;;;;;;;;;;5072703;28;20480;-61
2021/09/10 11:32:21;;;;;;;14.20;12.90;;;;;;;;;;5073254;28;20471;-63
2021/09/10 11:34:48;;;;;;;14.40;13.00;;;;;;;;;;5073233;28;20446;-62
2021/09/10 11:37:25;;;;;;;15.67;14.20;;;;;;;;;;5072806;28;20510;-62
2021/09/10 11:39:52;;;;;;;13.90;12.70;;;;;;;;;;5073075;28;20521;-59
2021/09/10 11:42:31;;;;;;;15.60;14.30;;;;;;;;;;5072541;28;20999;-60
2021/09/10 11:45:03;;;;;;;13.97;12.70;;;;;;;;;;5073612;28;20489;-63
2021/09/10 11:47:31;;;;;;;14.07;12.80;;;;;;;;;;5073070;28;20446;-63
2021/09/10 11:49:58;;;;;;;14.53;13.03;;;;;;;;;;5073000;28;20537;-63
2021/09/10 11:52:35;;;;;;;14.40;13.20;;;;;;;;;;5072828;28;20523;-61
2021/09/10 11:55:10;;;;;;;14.77;13.57;;;;;;;;;;5072528;28;20421;-61
2021/09/10 11:57:37;;;;;;;16.17;14.00;;;;;;;;;;5072640;28;20503;-62
2021/09/10 12:00:07;;;;;;;15.10;13.50;;;;;;;;;;5072956;28;20441;-61
2021/09/10 12:02:34;;;;;;;13.57;12.00;;;;;;;;;;5072741;28;20955;-62
2021/09/10 12:05:04;;;;;;;14.27;13.07;;;;;;;;;;5072564;28;20443;-62
2021/09/10 12:07:32;;;;;;;14.43;13.10;;;;;;;;;;5072292;28;20456;-61
2021/09/10 12:09:59;;;;;;;14.20;13.00;;;;;;;;;;5072786;28;21008;-62
2021/09/10 12:12:27;;;;;;;13.47;12.20;;;;;;;;;;5072485;28;20492;-61
2021/09/10 12:14:59;;;;;;;14.47;13.00;;;;;;;;;;5072290;28;20450;-62
2021/09/10 12:17:30;;;;;;;14.30;12.90;;;;;;;;;;5072510;28;20447;-63
2021/09/10 12:19:58;;;;;;;13.03;11.90;;;;;;;;;;5072272;28;20776;-60
2021/09/10 12:22:34;;;;;;;14.07;12.83;;;;;;;;;;5071584;28;20465;-62
2021/09/10 12:25:20;;;;;;;12.83;11.60;;;;;;;;;;5072376;28;20474;-61
2021/09/10 12:27:47;;;;;;;13.80;12.67;;;;;;;;;;5072534;28;20508;-62
2021/09/10 12:30:16;;;;;;;12.87;11.60;;;;;;;;;;5076430;28;20474;-62
2021/09/10 12:32:44;;;;;;;13.97;12.77;;;;;;;;;;5076452;28;20518;-62
2021/09/10 12:35:11;;;;;;;13.47;12.37;;;;;;;;;;5076477;28;20540;-62
2021/09/10 12:37:39;;;;;;;13.30;12.10;;;;;;;;;;5076235;28;21003;-63
2021/09/10 12:40:07;;;;;;;13.33;12.23;;;;;;;;;;5076366;28;20497;-62
2021/09/10 12:42:34;;;;;;;13.47;12.10;;;;;;;;;;5076060;28;20464;-63
2021/09/10 12:45:01;;;;;;;14.33;13.10;;;;;;;;;;5076034;28;20444;-62
2021/09/10 12:47:28;;;;;;;12.77;11.67;;;;;;;;;;5076207;28;20508;-62
2021/09/10 12:49:57;;;;;;;13.47;11.67;;;;;;;;;;5076511;28;20534;-62
2021/09/10 12:52:24;;;;;;;12.10;11.00;;;;;;;;;;5076442;28;20468;-63
2021/09/10 12:54:52;;;;;;;17.30;13.53;;;;;;;;;;5076330;28;20497;-60
2021/09/10 12:57:19;;;;;;;14.63;13.23;;;;;;;;;;5075809;28;20819;-62
2021/09/10 12:59:46;;;;;;;15.00;13.70;;;;;;;;;;5075773;28;20454;-61
2021/09/10 13:02:13;;;;;;;15.57;14.07;;;;;;;;;;5076275;28;20457;-62
2021/09/10 13:04:40;;;;;;;14.30;12.93;;;;;;;;;;5075855;28;20495;-62
2021/09/10 13:07:09;;;;;;;14.57;13.23;;;;;;;;;;5075837;28;20486;-62
2021/09/10 13:09:36;;;;;;;14.70;13.47;;;;;;;;;;5076252;28;20481;-63
2021/09/10 13:12:04;;;;;;;13.50;12.30;;;;;;;;;;5075413;28;20479;-61
2021/09/10 13:14:31;;;;;;;19.50;17.70;;;;;;;;;;5076011;28;20486;-63
2021/09/10 13:16:59;;;;;;;18.67;16.97;;;;;;;;;;5075808;28;20934;-63
2021/09/10 13:19:26;;;;;;;21.60;19.67;;;;;;;;;;5076238;28;20516;-62
2021/09/10 13:21:53;;;;;;;16.80;15.10;;;;;;;;;;5075971;28;20974;-62
2021/09/10 13:24:22;;;;;;;14.60;13.40;;;;;;;;;;5075585;28;20450;-62
2021/09/10 13:26:50;;;;;;;13.37;12.07;;;;;;;;;;5075535;28;20538;-63
2021/09/10 13:29:17;;;;;;;12.97;11.87;;;;;;;;;;5076171;28;20859;-63
2021/09/10 13:31:44;;;;;;;12.67;11.50;;;;;;;;;;5075721;28;20938;-61
2021/09/10 13:34:12;;;;;;;11.80;10.73;;;;;;;;;;5075192;28;20458;-64
2021/09/10 13:36:39;;;;;;;12.30;11.10;;;;;;;;;;5075898;28;20453;-62
2021/09/10 13:39:07;;;;;;;12.83;11.67;;;;;;;;;;5075218;28;20462;-62
2021/09/10 13:41:36;;;;;;;12.40;11.40;;;;;;;;;;5075648;28;20881;-62
2021/09/10 13:44:03;;;;;;;12.53;11.33;;;;;;;;;;5075736;28;20446;-62
2021/09/10 13:46:31;;;;;;;11.67;10.47;;;;;;;;;;5075753;28;20453;-62
2021/09/10 13:48:58;;;;;;;16.60;11.83;;;;;;;;;;5075348;28;20451;-61
2021/09/10 13:51:26;;;;;;;12.00;10.80;;;;;;;;;;5075097;28;20489;-63
2021/09/10 13:53:53;;;;;;;11.80;10.13;;;;;;;;;;5075061;28;20493;-63
2021/09/10 13:56:21;;;;;;;12.33;11.20;;;;;;;;;;5075526;28;20477;-63
2021/09/10 13:58:50;;;;;;;12.90;11.67;;;;;;;;;;5075402;28;20533;-62
2021/09/10 14:01:17;;;;;;;12.03;10.83;;;;;;;;;;5075181;28;20434;-62
2021/09/10 14:03:44;;;;;;;11.67;10.57;;;;;;;;;;5075044;28;20478;-62
2021/09/10 14:06:12;;;;;;;11.73;10.53;;;;;;;;;;5075066;28;20540;-62
2021/09/10 14:08:39;;;;;;;11.63;10.63;;;;;;;;;;5075058;28;20437;-63
2021/09/10 14:11:07;;;;;;;11.33;10.23;;;;;;;;;;5075124;28;20870;-61
2021/09/10 14:13:34;;;;;;;11.90;10.60;;;;;;;;;;5075098;28;20894;-62
2021/09/10 14:16:03;;;;;;;11.80;10.70;;;;;;;;;;5075009;28;20457;-63
2021/09/10 14:18:31;;;;;;;11.87;10.77;;;;;;;;;;5075516;28;20446;-63
2021/09/10 14:20:58;;;;;;;11.47;10.37;;;;;;;;;;5075187;28;20500;-62
2021/09/10 14:23:26;;;;;;;10.17;9.17;;;;;;;;;;5074981;28;20485;-62
2021/09/10 14:25:53;;;;;;;11.37;10.23;;;;;;;;;;5074627;28;20463;-59
2021/09/10 14:28:20;;;;;;;10.77;9.80;;;;;;;;;;5074341;28;20440;-63
2021/09/10 14:30:48;;;;;;;10.63;9.63;;;;;;;;;;5074557;28;20485;-62
2021/09/10 14:33:16;;;;;;;11.03;10.00;;;;;;;;;;5074597;28;20470;-63